Date,TemperatureHighF,TemperatureAvgF,TemperatureLowF,DewpointHighF,DewpointAvgF,DewpointLowF,HumidityHigh,HumidityAvg,HumidityLow,PressureMaxIn,PressureMinIn,WindSpeedMaxMPH,WindSpeedAvgMPH,GustSpeedMaxMPH,PrecipitationSumIn
2012-10-13,70,64,58,57,51,47,81,65,45,30.39,30.28,20,8,22,0.00
2012-10-14,77,69,60,67,62,57,93,80,57,30.30,30.07,11,2,12,0.00
2012-10-15,75,72,67,71,67,62,90,84,76,30.05,29.72,24,8,28,0.00
2012-10-16,69,63,58,63,52,46,88,68,45,29.92,29.76,16,6,23,0.00
2012-10-17,68,63,58,58,54,51,84,74,55,30.00,29.90,10,1,12,0.00
2012-10-18,74,69,62,71,65,57,92,85,73,29.94,29.81,18,6,22,0.02
2012-10-19,74,73,72,71,69,61,93,87,68,29.81,29.72,23,10,23,0.00
2012-10-20,72,69,63,63,53,46,75,57,42,29.90,29.78,23,10,23,0.00
2012-10-21,71,63,56,55,52,45,80,68,47,30.11,29.90,15,2,15,0.00
2012-10-22,71,63,56,58,50,44,86,65,41,30.20,30.11,10,1,10,0.00
2012-10-23,71,66,57,63,54,48,83,68,47,30.19,30.11,12,3,12,0.00
2012-10-24,77,71,63,68,65,59,91,82,61,30.18,30.10,16,4,16,0.00
2012-10-25,79,71,65,69,65,63,95,82,62,30.15,30.07,20,2,20,0.00
2012-10-26,76,68,63,68,65,60,95,89,71,30.07,29.78,23,10,23,0.16
2012-10-27,71,68,64,66,64,62,93,89,81,29.78,29.40,42,17,42,1.26
2012-10-28,64,61,57,62,58,53,93,91,83,29.40,29.28,40,19,40,0.71
2012-10-30,56,54,0,43,40,0,68,59,53,29.62,29.44,34,18,34,0.00
2012-10-31,58,52,48,45,39,36,66,60,50,29.76,29.62,24,12,24,0.00
2012-11-1,59,53,47,44,40,38,74,62,48,29.83,29.69,22,5,22,0.00
2012-11-2,63,54,44,51,42,34,80,65,46,29.93,29.76,32,9,32,0.00
2012-11-3,58,52,44,46,39,34,80,63,45,30.05,29.92,15,2,15,0.00
2012-11-4,70,54,49,64,47,39,91,77,59,30.07,29.87,19,5,20,0.09
2012-11-5,55,50,46,47,42,38,91,75,55,30.08,29.91,20,8,20,0.01
2012-11-6,51,48,44,46,44,38,91,86,75,30.07,29.78,21,9,21,0.20
2012-11-7,49,45,41,46,42,38,93,90,81,29.85,29.73,18,7,18,0.02
2012-11-8,57,47,38,38,34,29,90,64,34,30.02,29.85,17,5,17,0.00
2012-11-9,60,51,43,46,35,28,87,57,34,30.24,30.01,15,4,15,0.00
2012-11-10,61,54,45,56,48,40,91,78,57,30.38,30.24,7,1,7,0.00
2012-11-11,70,59,52,58,54,49,93,84,59,30.47,30.37,10,2,10,0.00
2012-11-12,68,62,56,63,59,54,94,89,80,30.43,30.21,11,4,11,0.00
2012-11-13,64,60,48,62,57,45,93,92,91,30.30,30.16,24,8,24,0.01
2012-11-14,53,49,47,48,45,42,91,85,80,30.34,30.25,28,14,28,0.00
2012-11-15,58,51,46,52,47,42,93,86,80,30.27,30.11,23,10,23,0.05
2012-11-16,58,52,46,50,46,41,93,82,66,30.28,30.12,19,9,19,0.03
2012-11-17,58,52,44,51,47,41,88,84,77,30.32,30.27,31,14,31,0.00
2012-11-18,58,57,55,54,54,50,93,89,85,30.28,30.13,30,20,30,0.05
2012-11-19,57,56,52,54,53,50,93,91,89,30.14,30.01,31,16,31,0.00
2012-11-20,54,53,51,52,51,50,94,91,86,30.05,29.98,22,8,22,0.00
2012-11-21,56,53,49,50,48,46,90,84,80,30.07,29.98,19,10,19,0.00
2012-11-22,60,52,46,51,47,42,89,82,70,30.10,30.01,20,12,23,0.00
2012-11-23,56,52,45,49,46,43,93,81,72,30.09,29.83,13,7,13,0.00
2012-11-24,56,50,40,47,37,28,72,60,43,30.06,29.81,13,6,13,0.00
2012-11-25,54,43,35,42,31,25,74,61,48,30.15,30.04,22,8,22,0.00
2012-11-26,58,53,47,51,44,38,88,71,54,30.19,30.07,20,6,20,0.00
2012-11-27,58,55,49,53,51,47,93,86,67,30.19,30.07,15,1,15,0.01
2012-11-28,54,48,42,49,40,34,93,75,53,30.32,30.12,21,6,21,0.00
2012-11-29,56,47,39,44,38,30,89,72,39,30.45,30.35,13,2,13,0.00
2012-11-30,58,50,43,47,42,38,90,77,49,30.39,30.28,11,1,11,0.00
2012-12-1,58,52,45,50,46,41,91,80,64,30.38,30.30,15,1,15,0.00
2012-12-2,60,55,48,54,50,44,89,84,66,30.38,30.25,9,1,9,0.00
2012-12-3,60,58,57,58,56,53,95,93,86,30.29,30.22,5,0,5,0.00
2012-12-4,59,59,59,57,57,57,93,93,93,30.33,30.20,0,0,0,0.00
2012-12-5,59,59,54,57,56,44,93,90,69,30.21,30.07,19,1,19,0.00
2012-12-6,55,51,48,46,44,41,87,76,59,30.24,30.15,23,10,23,0.00
2012-12-7,64,58,49,60,55,44,92,90,84,30.15,29.96,17,7,17,0.05
2012-12-8,62,62,62,60,60,60,92,92,92,30.06,29.92,6,6,6,0.00
2012-12-9,62,62,62,60,60,60,92,92,92,30.16,30.01,6,6,6,0.00
2012-12-10,62,62,62,60,60,60,92,92,92,30.03,29.77,6,6,6,0.00
2012-12-11,62,62,62,60,60,60,92,92,92,30.08,29.76,6,6,6,0.00
2012-12-12,62,55,0,60,53,0,94,88,92,30.19,30.07,29,9,29,0.37
2012-12-13,52,49,46,49,46,43,95,90,84,30.24,30.07,28,12,32,0.46
2012-12-14,57,49,43,49,44,42,95,84,59,30.30,30.19,15,5,15,0.00
2012-12-15,59,52,47,54,47,44,94,84,73,30.22,30.06,14,5,14,0.00
2012-12-16,61,59,57,61,58,54,98,96,89,30.07,29.88,17,3,17,0.12
2012-12-17,62,59,58,60,58,57,98,97,94,29.88,29.62,31,7,32,0.34
2012-12-18,63,58,50,58,53,39,96,84,60,29.89,29.64,25,11,25,0.00
2012-12-19,58,53,46,52,44,37,86,73,53,30.10,29.87,18,6,18,0.00
2012-12-20,65,57,50,60,52,46,89,84,72,30.14,29.56,34,9,37,0.02
2012-12-21,65,64,63,63,61,60,94,90,84,29.58,29.42,44,28,44,0.30
2012-12-22,49,43,37,31,27,23,65,53,39,30.06,29.76,19,12,32,0.00
2012-12-23,55,47,37,47,32,20,76,56,33,30.14,30.02,27,8,27,0.04
2012-12-24,58,54,50,52,46,35,86,75,56,30.05,29.88,24,6,24,0.01
2012-12-25,56,52,49,51,48,45,91,84,75,30.07,29.91,17,6,17,0.00
2012-12-26,64,56,50,61,54,47,96,90,83,30.04,29.44,57,14,57,1.22
2012-12-27,50,46,42,45,36,33,82,68,55,30.01,29.58,21,11,31,0.00
2012-12-28,48,42,36,38,34,30,83,73,60,30.15,29.98,6,2,11,0.00
2012-12-29,55,50,45,54,46,36,96,86,72,29.98,29.55,30,9,30,0.89
2012-12-30,47,42,37,37,28,23,73,59,39,30.35,29.84,22,8,27,0.00
2012-12-31,54,45,34,50,35,24,87,68,52,30.35,30.11,28,10,28,0.00
2013-1-1,54,53,52,53,50,48,95,89,85,30.11,29.92,24,9,24,0.00